createdAt,value
2022-08-02T00:00:59.184Z,99495.06
2022-08-02T00:06:01.913Z,99509.34
2022-08-02T00:11:04.606Z,99510.13
2022-08-02T00:16:08.660Z,99508.13
2022-08-02T00:21:11.728Z,99501.03
2022-08-02T00:26:14.469Z,99470.13
2022-08-02T00:31:18.505Z,99457.84
2022-08-02T00:36:21.214Z,99445.47
2022-08-02T00:41:24.205Z,99460.47
2022-08-02T00:46:28.254Z,99481.38
2022-08-02T00:51:30.942Z,99486.75
2022-08-02T00:56:34.006Z,99484.75
2022-08-02T01:01:54.603Z,99461.19
2022-08-02T01:07:01.057Z,99455.97
2022-08-02T01:12:03.781Z,99447.13
2022-08-02T01:17:11.856Z,99435.59
2022-08-02T01:23:00.174Z,99448.88
2022-08-02T01:28:21.936Z,99456.81
2022-08-02T01:33:27.878Z,99463.75
2022-08-02T01:38:34.053Z,99454.13
2022-08-02T01:43:39.410Z,99465.47
2022-08-02T01:48:42.822Z,99455.72
2022-08-02T01:53:48.027Z,99456.59
2022-08-02T01:58:53.309Z,99446.88
2022-08-02T02:03:56.008Z,99449.44
2022-08-02T02:08:59.821Z,99447.66
2022-08-02T02:14:05.086Z,99431.72
2022-08-02T02:19:08.358Z,99426.41
2022-08-02T02:24:11.830Z,99417.50
2022-08-02T02:29:17.441Z,99420.06
2022-08-02T02:34:26.592Z,99415.66
2022-08-02T02:39:30.117Z,99391.75
2022-08-02T02:44:34.429Z,99385.56
2022-08-02T02:49:37.642Z,99366.16
2022-08-02T02:54:40.560Z,99381.16
2022-08-02T02:59:49.668Z,99382.00
2022-08-02T03:04:56.859Z,99365.13
2022-08-02T03:10:00.860Z,99383.63
2022-08-02T03:15:08.227Z,99372.97
2022-08-02T03:20:12.786Z,99377.31
2022-08-02T03:25:17.017Z,99376.44
2022-08-02T03:30:24.575Z,99372.00
2022-08-02T03:35:27.270Z,99371.13
2022-08-02T03:40:30.034Z,99385.16
2022-08-02T03:45:34.081Z,99360.44
2022-08-02T03:50:37.854Z,99359.59
2022-08-02T03:55:41.060Z,99347.16
2022-08-02T04:00:45.359Z,99339.16
2022-08-02T04:06:03.574Z,99330.31
2022-08-02T04:11:24.069Z,99352.38
2022-08-02T04:16:32.137Z,99346.25
2022-08-02T04:21:48.580Z,99339.03
2022-08-02T04:26:57.772Z,99363.66
2022-08-02T04:32:11.505Z,99362.88
2022-08-02T04:37:14.774Z,99368.00
2022-08-02T04:42:22.046Z,99342.81
2022-08-02T04:48:02.312Z,99335.81
2022-08-02T04:52:49.174Z,99305.25
2022-08-02T04:57:57.597Z,99327.31
2022-08-02T05:03:02.338Z,99314.97
2022-08-02T05:08:05.597Z,99332.47
2022-08-02T05:13:08.282Z,99315.00
2022-08-02T05:18:12.436Z,99317.69
2022-08-02T05:23:15.990Z,99302.75
2022-08-02T05:28:18.680Z,99306.25
2022-08-02T05:33:23.281Z,99286.88
2022-08-02T05:38:26.385Z,99311.59
2022-08-02T05:43:29.098Z,99316.88
2022-08-02T05:48:33.083Z,99302.75
2022-08-02T05:53:39.973Z,99272.66
2022-08-02T05:58:51.022Z,99305.47
2022-08-02T06:03:59.090Z,99294.84
2022-08-02T06:09:03.983Z,99293.94
2022-08-02T06:14:08.144Z,99244.34
2022-08-02T06:19:13.340Z,99280.63
2022-08-02T06:24:18.992Z,99285.09
2022-08-02T06:29:23.133Z,99293.97
2022-08-02T06:34:27.530Z,99285.94
2022-08-02T06:39:33.906Z,99292.13
2022-08-02T06:44:48.820Z,99285.88
2022-08-02T06:49:54.987Z,99267.94
2022-08-02T06:54:59.519Z,99263.44
2022-08-02T07:00:04.550Z,99258.06
2022-08-02T07:05:09.729Z,99250.72
2022-08-02T07:10:13.047Z,99250.50
2022-08-02T07:15:16.357Z,99258.44
2022-08-02T07:20:20.353Z,99275.28
2022-08-02T07:25:23.232Z,99257.28
2022-08-02T07:30:25.891Z,99261.34
2022-08-02T07:35:29.906Z,99273.97
2022-08-02T07:40:36.017Z,99280.09
2022-08-02T07:45:45.642Z,99294.03
2022-08-02T07:51:00.072Z,99291.72
2022-08-02T07:56:02.729Z,99340.94
2022-08-02T08:01:05.650Z,99356.69
2022-08-02T08:06:09.657Z,99371.25
2022-08-02T08:11:12.365Z,99381.59
2022-08-02T08:16:15.017Z,99415.22
2022-08-02T08:21:19.075Z,99460.09
2022-08-02T08:26:21.739Z,99516.78
2022-08-02T08:31:24.423Z,99594.50
2022-08-02T08:36:28.614Z,99643.91
2022-08-02T08:41:31.292Z,99690.06
2022-08-02T08:46:34.865Z,99747.09
2022-08-02T08:51:44.424Z,99832.28
2022-08-02T08:56:47.571Z,99888.00
2022-08-02T09:01:51.298Z,99937.06
2022-08-02T09:06:55.584Z,100008.09
2022-08-02T09:12:14.882Z,100075.13
2022-08-02T09:17:18.336Z,100122.97
2022-08-02T09:22:22.337Z,100179.91
2022-08-02T09:27:25.033Z,100222.78
2022-08-02T09:32:29.665Z,100240.47
2022-08-02T09:37:33.664Z,100292.22
2022-08-02T09:42:36.419Z,100350.44
2022-08-02T09:47:39.074Z,100405.78
2022-08-02T09:52:44.272Z,100430.06
2022-08-02T09:57:51.012Z,100439.72
2022-08-02T10:03:07.704Z,100469.97
2022-08-02T10:08:11.881Z,100481.31
2022-08-02T10:13:14.687Z,100508.09
2022-08-02T10:18:38.065Z,100511.53
2022-08-02T10:23:44.811Z,100527.41
2022-08-02T10:28:49.369Z,100538.53
2022-08-02T10:33:53.908Z,100548.50
2022-08-02T10:38:59.497Z,100561.16
2022-08-02T10:44:02.276Z,100558.91
2022-08-02T10:54:36.678Z,100558.59
2022-08-02T10:59:39.551Z,100565.41
2022-08-02T11:05:04.425Z,100565.66
2022-08-02T11:10:43.687Z,100565.94
2022-08-02T11:15:56.918Z,100569.94
2022-08-02T11:21:24.655Z,100559.06
2022-08-02T11:26:44.572Z,100563.94
2022-08-02T11:31:48.905Z,100564.03
2022-08-02T11:36:52.625Z,100571.00
2022-08-02T11:41:57.927Z,100552.91
2022-08-02T11:47:03.570Z,100561.56
2022-08-02T11:52:10.108Z,100557.41
2022-08-02T11:57:19.312Z,100549.72
2022-08-02T12:02:26.681Z,100545.13
2022-08-02T12:07:35.172Z,100548.97
2022-08-02T12:12:49.019Z,100548.78
2022-08-02T12:18:10.777Z,100543.19
2022-08-02T12:23:13.835Z,100538.84
2022-08-02T12:28:18.498Z,100530.16
2022-08-02T12:33:23.656Z,100538.56
2022-08-02T12:38:26.500Z,100544.66
2022-08-02T12:43:29.164Z,100522.41
2022-08-02T12:48:37.747Z,100523.56
2022-08-02T12:53:41.180Z,100527.63
2022-08-02T12:58:50.521Z,100526.72
2022-08-02T13:04:10.774Z,100516.38
2022-08-02T13:09:17.599Z,100531.94
2022-08-02T13:14:20.556Z,100528.63
2022-08-02T13:19:24.581Z,100521.75
2022-08-02T13:24:38.365Z,100509.09
2022-08-02T13:29:41.845Z,100527.69
2022-08-02T13:34:45.948Z,100515.69
2022-08-02T13:40:06.038Z,100499.53
2022-08-02T13:45:12.826Z,100499.59
2022-08-02T13:50:18.389Z,100497.94
2022-08-02T13:55:21.326Z,100490.09
2022-08-02T14:00:34.855Z,100477.13
2022-08-02T14:05:48.255Z,100461.44
2022-08-02T14:10:52.688Z,100459.09
2022-08-02T14:15:55.608Z,100451.94
2022-08-02T14:20:59.714Z,100458.72
2022-08-02T14:26:04.527Z,100450.09
2022-08-02T14:31:07.295Z,100474.09
2022-08-02T14:36:15.706Z,100449.97
2022-08-02T14:41:33.657Z,100448.47
2022-08-02T14:46:36.903Z,100439.81
2022-08-02T14:51:40.992Z,100430.00
2022-08-02T14:56:43.685Z,100426.34
2022-08-02T15:01:46.749Z,100430.66
2022-08-02T15:06:51.341Z,100430.31
2022-08-02T15:11:57.234Z,100419.81
2022-08-02T15:17:09.302Z,100412.78
2022-08-02T15:22:14.509Z,100412.97
2022-08-02T15:27:19.189Z,100416.88
2022-08-02T15:32:21.829Z,100405.63
2022-08-02T15:37:25.971Z,100403.03
2022-08-02T15:42:33.890Z,100404.16
2022-08-02T15:47:36.633Z,100401.16
2022-08-02T15:52:40.810Z,100392.56
2022-08-02T15:57:43.530Z,100400.78
2022-08-02T16:02:46.869Z,100397.75
2022-08-02T16:07:52.040Z,100391.16
2022-08-02T16:13:14.700Z,100405.38
2022-08-02T16:18:17.404Z,100386.47
2022-08-02T16:23:21.448Z,100397.50
2022-08-02T16:28:44.108Z,100382.81
2022-08-02T16:33:46.826Z,100386.16
2022-08-02T16:38:50.883Z,100381.03
2022-08-02T16:43:53.573Z,100383.78
2022-08-02T16:48:56.590Z,100376.94
2022-08-02T16:54:01.126Z,100372.59
2022-08-02T16:59:03.966Z,100360.53
2022-08-02T17:04:07.011Z,100357.97
2022-08-02T17:09:12.161Z,100347.16
2022-08-02T17:14:55.265Z,100353.13
2022-08-02T17:19:58.620Z,100346.72
2022-08-02T17:25:04.973Z,100347.53
2022-08-02T17:30:11.002Z,100343.19
2022-08-02T17:35:15.611Z,100341.66
2022-08-02T17:40:20.615Z,100350.94
2022-08-02T17:45:27.844Z,100339.38
2022-08-02T17:50:49.189Z,100333.19
2022-08-02T17:55:53.235Z,100326.06
2022-08-02T18:00:56.916Z,100335.09
2022-08-02T18:06:00.837Z,100330.78
2022-08-02T18:11:05.586Z,100348.22
2022-08-02T18:16:20.957Z,100334.13
2022-08-02T18:21:24.671Z,100337.16
2022-08-02T18:26:29.301Z,100335.59
2022-08-02T18:31:39.685Z,100343.97
2022-08-02T18:36:47.465Z,100330.59
2022-08-02T18:41:51.818Z,100334.47
2022-08-02T18:46:54.928Z,100342.09
2022-08-02T18:51:58.188Z,100357.72
2022-08-02T18:57:04.224Z,100350.75
2022-08-02T19:02:26.073Z,100360.00
2022-08-02T19:07:50.734Z,100352.19
2022-08-02T19:12:54.817Z,100348.78
2022-08-02T19:17:58.153Z,100353.56
2022-08-02T19:23:02.731Z,100355.63
2022-08-02T19:28:06.936Z,100350.34
2022-08-02T19:33:11.347Z,100357.69
2022-08-02T19:38:28.020Z,100365.13
2022-08-02T19:44:25.924Z,100365.31
2022-08-02T19:48:55.094Z,100367.19
2022-08-02T19:54:00.773Z,100373.78
2022-08-02T19:59:13.270Z,100367.72
2022-08-02T20:04:23.383Z,100372.38
2022-08-02T20:09:33.109Z,100373.34
2022-08-02T20:14:37.995Z,100378.00
2022-08-02T20:19:41.093Z,100382.56
2022-08-02T20:24:49.376Z,100369.16
2022-08-02T20:29:53.439Z,100362.00
2022-08-02T20:34:56.122Z,100368.63
2022-08-02T20:40:00.022Z,100364.22
2022-08-02T20:45:04.593Z,100369.69
2022-08-02T20:50:30.580Z,100369.84
2022-08-02T20:55:35.571Z,100363.69
2022-08-02T21:00:40.187Z,100359.31
2022-08-02T21:05:55.820Z,100353.09
2022-08-02T21:10:58.924Z,100372.06
2022-08-02T21:21:26.115Z,100348.97
2022-08-02T21:26:32.594Z,100357.22
2022-08-02T21:31:36.931Z,100339.34
2022-08-02T21:36:39.622Z,100330.44
2022-08-02T21:41:46.291Z,100317.91
2022-08-02T21:46:53.824Z,100316.16
2022-08-02T21:51:56.643Z,100313.53
2022-08-02T21:56:59.316Z,100311.78
2022-08-02T22:02:04.182Z,100314.47
2022-08-02T22:07:11.281Z,100308.34
2022-08-02T22:12:18.240Z,100307.50
2022-08-02T22:17:52.715Z,100298.56
2022-08-02T22:22:48.296Z,100298.69
2022-08-02T22:28:34.725Z,100280.81
2022-08-02T22:33:35.160Z,100270.97
2022-08-02T22:38:38.006Z,100271.03
2022-08-02T22:43:40.848Z,100255.94
2022-08-02T22:48:45.452Z,100238.16
2022-08-02T22:53:48.442Z,100223.00
2022-08-02T22:59:02.308Z,100343.50
2022-08-02T23:04:15.229Z,100187.28
2022-08-02T23:09:17.926Z,100179.25
2022-08-02T23:14:20.822Z,100156.00
2022-08-02T23:19:42.428Z,100143.50
2022-08-02T23:24:45.518Z,100132.78
2022-08-02T23:29:49.112Z,100127.47
2022-08-02T23:34:53.224Z,100108.81
2022-08-02T23:39:55.908Z,100093.72
2022-08-02T23:44:58.625Z,100075.03
2022-08-02T23:50:02.821Z,100058.97
2022-08-02T23:55:06.641Z,100049.19
